AST,Max TemperatureF,Mean TemperatureF,Min TemperatureF,Max Dew PointF,MeanDew PointF,Min DewpointF,Max Humidity, Mean Humidity, Min Humidity, Max Sea Level PressureIn, Mean Sea Level PressureIn, Min Sea Level PressureIn, Max VisibilityMiles, Mean VisibilityMiles, Min VisibilityMiles, Max Wind SpeedMPH, Mean Wind SpeedMPH, Max Gust SpeedMPH,PrecipitationIn, CloudCover, Events, WindDirDegrees
2013-10-1,93,88,82,75,73,70,79,61,41,29.78,29.73,29.68,7,6,6,9,5,,0.00,1,,63
2013-10-2,97,90,83,77,73,66,74,57,31,29.84,29.78,29.74,9,8,7,12,7,,0.00,,,352
2013-10-3,99,91,83,81,75,64,79,63,32,29.86,29.80,29.77,9,6,5,9,5,,0.00,,,9
2013-10-4,106,94,81,79,66,39,89,49,5,29.83,29.76,29.68,7,6,3,16,7,,0.00,,,330
2013-10-5,106,96,86,77,62,37,70,38,10,29.80,29.74,29.68,10,7,6,12,6,,0.00,,,348
2013-10-6,105,94,84,77,58,34,63,35,4,29.78,29.72,29.68,9,6,6,12,5,,0.00,,,297
2013-10-7,104,93,82,79,64,45,79,43,8,29.83,29.77,29.71,7,7,6,16,7,21,0.00,1,,293
2013-10-8,95,88,82,77,69,63,79,56,34,29.91,29.86,29.80,6,4,3,22,14,28,0.00,1,,330
2013-10-9,93,86,78,66,60,54,58,44,26,29.96,29.90,29.86,9,8,6,18,14,28,0.00,,,321
2013-10-10,93,84,75,63,61,55,57,46,25,29.97,29.92,29.89,9,8,7,17,9,28,0.00,,,315
2013-10-11,93,84,75,64,61,55,65,49,25,29.96,29.91,29.86,9,8,7,16,11,,0.00,,,318
2013-10-12,92,84,76,63,56,43,61,40,16,29.89,29.82,29.77,10,9,7,13,9,,0.00,,,312
2013-10-13,94,84,73,66,59,48,73,46,21,29.87,29.82,29.77,9,8,7,12,6,,0.00,,,330
2013-10-14,94,84,73,72,58,42,74,44,10,29.94,29.88,29.83,9,6,6,18,4,,0.00,,,299
2013-10-15,93,84,74,75,66,55,84,59,23,29.97,29.89,29.86,10,6,4,12,4,,0.00,,,146
2013-10-16,97,87,77,75,68,46,89,60,20,29.95,29.88,29.83,11,7,5,12,5,,0.00,,,29
2013-10-17,95,86,76,72,61,46,78,47,15,29.96,29.92,29.89,9,8,7,12,6,,0.00,,,342
2013-10-18,92,83,74,79,71,57,89,68,30,29.98,29.93,29.89,7,5,4,12,6,,0.00,,,354
2013-10-19,96,87,78,79,73,52,100,68,22,29.99,29.94,29.92,10,4,0,10,5,,0.00,3,Fog,19
2013-10-20,100,88,77,75,61,36,79,45,6,30.00,29.94,29.89,9,6,5,15,7,,0.00,,,335
2013-10-21,95,86,77,73,64,55,83,48,23,29.95,29.89,29.83,9,5,4,20,12,31,0.00,,,318
2013-10-22,90,84,77,64,56,48,58,41,23,29.96,29.90,29.86,10,8,7,17,15,29,0.00,,,320
2013-10-23,90,82,73,64,56,52,57,41,19,30.01,29.94,29.89,11,9,6,13,8,,0.00,,,306
2013-10-24,87,80,74,70,63,59,66,54,37,30.02,29.96,29.92,9,7,6,12,8,,0.00,1,,336
2013-10-25,88,82,77,70,66,63,70,57,39,30.01,29.94,29.89,7,6,6,9,6,,0.00,2,,359
2013-10-26,87,81,75,72,65,59,74,59,38,29.98,29.91,29.86,9,7,6,14,5,,0.00,1,,150
2013-10-27,89,82,76,77,74,70,89,75,51,29.99,29.92,29.89,6,5,4,12,5,,0.00,1,,97
2013-10-28,92,85,78,77,73,64,89,72,38,29.96,29.90,29.86,9,5,4,13,5,,0.00,1,,108
2013-10-29,88,82,77,77,72,66,89,69,55,29.98,29.92,29.86,9,6,3,13,6,,0.00,1,,8
2013-10-30,90,84,78,66,63,54,65,51,29,30.04,29.98,29.92,10,8,6,13,8,,0.00,,,352
2013-10-31,89,82,76,73,67,59,83,60,38,30.05,29.99,29.95,9,8,6,12,6,,0.00,,,6